Altus, OK

2:05 AM CDT on September 03, 2014 (GMT -0500)
Corbin & Russell Addition | Change Station
CLOSE
Current Station
Personal Weather Station
Location: Altus, OK
Elevation: 1407 ft
Nearby Weather Stations

Elev 1407 ft 34.65 °N, 99.34 °W | Updated 8 seconds ago

Clear
Clear
79.9 °F
Feels Like 83 °F
N
6.0
Wind Variable Wind from East
Gusts 9.0 mph

Today
High -- | Low -- °F
--% Chance of Precip.
Yesterday
High -- | Low -- °F
Precip. -- in
7:11 AM 8:00 PM
First Quarter, 59% visible
Pressure 29.84 in
Visibility 10.0 miles
Clouds Clear
Heat Index 83 °F
Dew Point 69 °F
Humidity 69%
Rainfall 0.00 in
Snow Depth Not available.
UV 0 out of 12
Pollen 11.20 out of 12
Air Quality Not available.
Flu Activity Not available.
METAR KLTS 030658Z 14009KT 10SM CLR 26/20 A2989 RMK AO2A SLP103 T02620199 $

More Conditions Fewer Conditions

Pressure 29.84 in
Visibility 10.0 miles
Clouds Clear
Heat Index 83 °F
Dew Point 69 °F
Humidity 69%
Rainfall 0.00 in
Snow Depth Not available.
UV 0 out of 12
Pollen 11.20 out of 12
Air Quality Not available.
Flu Activity Not available.
METAR KLTS 030658Z 14009KT 10SM CLR 26/20 A2989 RMK AO2A SLP103 T02620199 $

More Conditions Fewer Conditions

10-Day Weather Forecast

Almanac

Astronomy

Sep. 03, 2014 Rise Set
Actual Time 7:11 AM CDT 8:00 PM CDT
Civil Twilight 6:46 AM CDT 8:26 PM CDT
Nautical Twilight 6:15 AM CDT 8:56 PM CDT
Astronomical Twilight 5:44 AM CDT 9:27 PM CDT
Moon 3:36 PM CDT 1:14 AM CDT
Length of Visible Light 13h 40m
Length of Day
12h 49m
Tomorrow will be 2m 5s shorter.
First Quarter, 59% of the Moon is Illuminated
Today
First Quarter
Sep 8
Full
Sep 15
Last Quarter
Sep 24
New
Oct 1
First Quarter

Today's Extremes

State Highs State Lows

Community

WunderPhotos

Upload Photos

1,749,888 photos uploaded!

Nearby

Snow Depth

Station Depth Elevation
No new snow has been reported.

Earthquake Activity

City Distance Mag. Time & Date
Helena, Oklahoma 138 miles 3.2 3:05 AM CDT
2014-09-02
Perry, Oklahoma 152 miles 3.1 6:46 AM CDT
2014-09-01
Enid, Oklahoma 155 miles 3.4 11:57 AM CDT
2014-08-31
Enid, Oklahoma 154 miles 3.7 2:20 AM CDT
2014-08-31
Minimum magnitude displayed is 2.5.

Coastal Water Temperatures

Place Temperature
No Stations Reporting

Nearby Weather Stations